Time;durP1;ratioP1;P1;durP2;ratioP2;P2;SDS_P1;SDS_P2;PMS_P1;PMS_P2;Temp;Humidity;BMP_temperature;BMP_pressure;BME280_temperature;BME280_humidity;BME280_pressure;Samples;Min_cycle;Max_cycle;Signal;HPM_P1;HPM_P2
2022/03/17 00:00:35;;;;;;;1.40;1.30;;;6.40;99.90;;;;;;5034644;28;20026;-73
2022/03/17 00:03:01;;;;;;;5.25;4.85;;;6.20;99.90;;;;;;5034485;28;20022;-74
2022/03/17 00:05:27;;;;;;;0.20;0.20;;;6.30;99.90;;;;;;5034766;28;20033;-73
2022/03/17 00:07:52;;;;;;;5.75;4.38;;;6.30;99.90;;;;;;5034501;28;20168;-74
2022/03/17 00:10:18;;;;;;;1.73;1.27;;;6.30;99.90;;;;;;5034573;28;20469;-73
2022/03/17 00:12:46;;;;;;;1.00;1.00;;;6.40;99.90;;;;;;5034443;28;20025;-74
2022/03/17 00:15:13;;;;;;;0.60;0.57;;;6.50;99.90;;;;;;5034214;28;20381;-73
2022/03/17 00:17:41;;;;;;;0.77;0.77;;;6.50;99.90;;;;;;5034238;28;20029;-74
2022/03/17 00:20:10;;;;;;;1.25;1.15;;;6.50;99.90;;;;;;5034217;28;20019;-74
2022/03/17 00:22:37;;;;;;;1.05;0.98;;;6.50;99.90;;;;;;5032953;28;20041;-74
2022/03/17 00:25:05;;;;;;;9.95;5.18;;;6.40;99.90;;;;;;5034047;28;20028;-74
2022/03/17 00:27:31;;;;;;;3.85;2.60;;;6.20;99.90;;;;;;5032872;28;20014;-74
2022/03/17 00:29:57;;;;;;;13.55;8.13;;;6.20;99.90;;;;;;5032851;28;20021;-74
2022/03/17 00:32:23;;;;;;;8.38;4.00;;;6.20;99.90;;;;;;5033990;28;20087;-74
2022/03/17 00:37:34;;;;;;;0.32;0.25;;;6.10;99.90;;;;;;5033814;28;20461;-74
2022/03/17 00:40:00;;;;;;;1.80;1.70;;;6.20;99.90;;;;;;5033809;28;20112;-74
2022/03/17 00:42:27;;;;;;;1.20;1.20;;;6.30;99.90;;;;;;5033799;28;20049;-74
2022/03/17 00:44:54;;;;;;;5.03;1.52;;;6.40;99.90;;;;;;5032348;28;20040;-74
2022/03/17 00:47:21;;;;;;;6.45;5.85;;;6.20;99.90;;;;;;5033559;28;20045;-74
2022/03/17 00:49:47;;;;;;;1.10;0.60;;;6.20;99.90;;;;;;5033659;28;20449;-74
2022/03/17 00:52:14;;;;;;;6.70;2.10;;;6.20;99.90;;;;;;5033345;28;20032;-74
2022/03/17 00:54:41;;;;;;;0.82;0.82;;;6.20;99.90;;;;;;5032245;28;20037;-74
2022/03/17 00:57:12;;;;;;;1.58;1.48;;;6.20;99.90;;;;;;5033876;28;20114;-74
2022/03/17 00:59:40;;;;;;;1.88;1.75;;;6.30;99.90;;;;;;5033414;28;20033;-74
2022/03/17 01:02:06;;;;;;;1.05;0.95;;;6.30;99.90;;;;;;5032263;28;20036;-74
2022/03/17 01:04:34;;;;;;;6.63;3.92;;;6.20;99.90;;;;;;5033155;28;20022;-74
2022/03/17 01:06:59;;;;;;;0.17;0.17;;;6.20;99.90;;;;;;5033243;28;20025;-74
2022/03/17 01:09:28;;;;;;;0.20;0.20;;;6.30;99.90;;;;;;5033251;28;20052;-74
2022/03/17 01:11:54;;;;;;;0.20;0.20;;;6.30;99.90;;;;;;5033282;28;20018;-74
2022/03/17 01:14:20;;;;;;;1.85;1.75;;;6.40;99.90;;;;;;5033060;28;20029;-74
2022/03/17 01:16:46;;;;;;;0.55;0.55;;;6.30;99.90;;;;;;5031903;28;20029;-74
2022/03/17 01:19:12;;;;;;;1.90;1.75;;;6.20;99.90;;;;;;5033098;28;20025;-74
2022/03/17 01:21:37;;;;;;;0.30;0.30;;;6.20;99.90;;;;;;5033507;28;20517;-74
2022/03/17 01:24:04;;;;;;;6.53;3.97;;;6.20;99.90;;;;;;5031619;28;20033;-74
2022/03/17 01:26:30;;;;;;;1.60;1.50;;;6.20;99.90;;;;;;5031557;28;20029;-74
2022/03/17 01:28:56;;;;;;;2.47;2.28;;;6.10;99.90;;;;;;5032978;28;20014;-74
2022/03/17 01:31:24;;;;;;;1.20;1.20;;;6.00;99.90;;;;;;5032928;28;20357;-74
2022/03/17 01:33:50;;;;;;;1.58;1.48;;;5.90;99.90;;;;;;5032725;28;20109;-74
2022/03/17 01:36:16;;;;;;;0.73;0.73;;;5.90;99.90;;;;;;5032727;28;20021;-75
2022/03/17 01:38:42;;;;;;;0.47;0.47;;;6.00;99.90;;;;;;5031467;28;20123;-74
2022/03/17 01:41:08;;;;;;;4.32;3.97;;;6.10;99.90;;;;;;5032706;28;20507;-75
2022/03/17 01:43:33;;;;;;;13.55;4.00;;;6.00;99.90;;;;;;5032622;28;20116;-74
2022/03/17 01:45:59;;;;;;;3.03;1.33;;;6.00;99.90;;;;;;5032502;28;20024;-74
2022/03/17 01:48:25;;;;;;;0.98;0.98;;;5.90;99.90;;;;;;5032554;28;20049;-74
2022/03/17 01:50:52;;;;;;;2.70;2.47;;;6.00;99.90;;;;;;5031321;28;20536;-74
2022/03/17 01:53:18;;;;;;;0.30;0.30;;;5.90;99.90;;;;;;5032181;28;20021;-74
2022/03/17 01:55:43;;;;;;;0.52;0.52;;;5.80;99.90;;;;;;5030972;28;20439;-75
2022/03/17 01:58:10;;;;;;;0.90;0.90;;;6.00;99.90;;;;;;5032438;28;20025;-74
2022/03/17 02:00:37;;;;;;;16.88;5.93;;;6.20;99.90;;;;;;5032372;28;20101;-74
2022/03/17 02:03:03;;;;;;;1.92;1.17;;;6.30;99.90;;;;;;5031010;28;20183;-74
2022/03/17 02:05:29;;;;;;;0.30;0.30;;;6.00;99.90;;;;;;5032150;28;20109;-75
2022/03/17 02:07:55;;;;;;;2.40;1.08;;;6.10;99.90;;;;;;5014562;28;20030;-74
2022/03/17 02:10:22;;;;;;;0.30;0.30;;;6.20;99.90;;;;;;5031065;28;20579;-74
2022/03/17 02:15:33;;;;;;;1.55;1.45;;;6.10;99.90;;;;;;5031907;28;20026;-74
2022/03/17 02:18:00;;;;;;;3.55;0.88;;;6.20;99.90;;;;;;5032133;28;20029;-74
2022/03/17 02:20:26;;;;;;;2.80;1.38;;;6.10;99.90;;;;;;5032031;28;20424;-74
2022/03/17 02:25:33;;;;;;;0.20;0.20;;;6.10;99.90;;;;;;5032190;28;20022;-74
2022/03/17 02:25:42;;;;;;;0.20;0.20;;;6.10;99.90;;;;;;5031761;28;20623;-74
2022/03/17 02:28:08;;;;;;;0.70;0.70;;;6.10;99.90;;;;;;5030945;28;20101;-75
2022/03/17 02:30:37;;;;;;;0.40;0.40;;;6.00;99.90;;;;;;5030983;28;20176;-74
2022/03/17 02:33:06;;;;;;;0.30;0.30;;;6.00;99.90;;;;;;5031956;28;20473;-74
2022/03/17 02:35:33;;;;;;;0.20;0.20;;;6.10;99.90;;;;;;5031691;28;20469;-74
2022/03/17 02:38:03;;;;;;;2.05;1.88;;;6.20;99.90;;;;;;5031981;28;20042;-74
2022/03/17 02:40:33;;;;;;;0.25;0.25;;;6.10;99.90;;;;;;5030692;28;20396;-74
2022/03/17 02:42:59;;;;;;;3.63;0.93;;;6.10;99.90;;;;;;5031903;28;20017;-74
2022/03/17 02:45:25;;;;;;;1.80;1.75;;;6.10;99.90;;;;;;5030513;28;20112;-75
2022/03/17 02:47:51;;;;;;;1.75;1.65;;;6.20;99.90;;;;;;5030534;28;20125;-74
2022/03/17 02:50:18;;;;;;;5.38;3.45;;;6.10;99.90;;;;;;5033840;28;20381;-74
2022/03/17 02:52:44;;;;;;;0.38;0.38;;;6.10;99.90;;;;;;5035627;28;20018;-74
2022/03/17 02:55:11;;;;;;;2.08;0.82;;;6.00;99.90;;;;;;5035757;28;20030;-75
2022/03/17 02:57:38;;;;;;;2.53;1.70;;;6.10;99.90;;;;;;5035643;28;20545;-74
2022/03/17 03:00:09;;;;;;;0.52;0.52;;;6.00;99.90;;;;;;5036117;28;20036;-74
2022/03/17 03:02:36;;;;;;;12.63;3.73;;;6.10;99.90;;;;;;5034493;28;20021;-74
2022/03/17 03:05:05;;;;;;;1.33;1.33;;;6.00;99.90;;;;;;5035854;28;20082;-74
2022/03/17 03:07:32;;;;;;;0.40;0.40;;;5.90;99.90;;;;;;5035517;28;20022;-74
2022/03/17 03:09:58;;;;;;;1.00;1.00;;;5.80;99.90;;;;;;5035483;28;20550;-74
2022/03/17 03:12:24;;;;;;;0.60;0.60;;;5.80;99.90;;;;;;5035484;28;20028;-74
2022/03/17 03:14:50;;;;;;;1.23;1.23;;;5.90;99.90;;;;;;5034007;28;20393;-74
2022/03/17 03:17:16;;;;;;;1.10;0.93;;;6.00;99.90;;;;;;5034066;28;20030;-75
2022/03/17 03:19:42;;;;;;;0.20;0.20;;;6.00;99.90;;;;;;5035375;28;20029;-74
2022/03/17 03:22:09;;;;;;;4.20;1.48;;;6.20;99.90;;;;;;5034156;28;20385;-75
2022/03/17 03:24:38;;;;;;;0.30;0.30;;;6.20;99.90;;;;;;5034012;28;20100;-75
2022/03/17 03:27:05;;;;;;;0.30;0.30;;;6.20;99.90;;;;;;5050602;28;20418;-75
2022/03/17 03:29:31;;;;;;;1.75;1.20;;;6.20;99.90;;;;;;5034023;28;20105;-74
2022/03/17 03:32:03;;;;;;;0.20;0.20;;;6.10;99.90;;;;;;5034049;28;20033;-75
2022/03/17 03:34:30;;;;;;;0.40;0.30;;;6.10;99.90;;;;;;5033960;28;20400;-75
2022/03/17 03:39:41;;;;;;;0.20;0.20;;;6.00;99.90;;;;;;5034924;28;20088;-74
2022/03/17 03:42:08;;;;;;;0.22;0.22;;;6.10;99.90;;;;;;5033756;28;20029;-75
2022/03/17 03:44:34;;;;;;;0.65;0.65;;;6.10;99.90;;;;;;5033521;28;20049;-75
2022/03/17 03:47:00;;;;;;;3.22;1.58;;;6.20;99.90;;;;;;5033521;28;20029;-75
2022/03/17 03:49:26;;;;;;;0.40;0.40;;;6.00;99.90;;;;;;5034805;28;20036;-75
2022/03/17 03:51:52;;;;;;;1.20;0.50;;;5.90;99.90;;;;;;5033343;28;20025;-75
2022/03/17 03:54:18;;;;;;;2.45;1.75;;;6.00;99.90;;;;;;5034708;28;20079;-74
2022/03/17 03:56:52;;;;;;;0.20;0.20;;;5.90;99.90;;;;;;5034483;28;20032;-74
2022/03/17 03:59:23;;;;;;;0.73;0.70;;;6.10;99.90;;;;;;5034707;28;20029;-75
2022/03/17 04:01:50;;;;;;;1.80;1.67;;;6.00;99.90;;;;;;5033342;28;20036;-74
2022/03/17 04:04:19;;;;;;;0.20;0.20;;;6.00;99.90;;;;;;5034447;28;20501;-74
2022/03/17 04:06:58;;;;;;;0.43;0.35;;;5.90;99.90;;;;;;5033121;28;20374;-74
2022/03/17 04:09:28;;;;;;;1.27;1.25;;;5.80;99.90;;;;;;5034498;28;20076;-74
2022/03/17 04:11:55;;;;;;;0.40;0.40;;;5.90;99.90;;;;;;5034366;28;20397;-74
2022/03/17 04:14:21;;;;;;;0.22;0.22;;;6.00;99.90;;;;;;5034496;28;20053;-74
2022/03/17 04:16:47;;;;;;;0.20;0.20;;;6.00;99.90;;;;;;5034180;28;20032;-74
2022/03/17 04:19:15;;;;;;;0.20;0.20;;;6.10;99.90;;;;;;5033037;28;20022;-74
2022/03/17 04:21:41;;;;;;;0.30;0.30;;;6.00;99.90;;;;;;5034231;28;20070;-74
2022/03/17 04:24:07;;;;;;;0.73;0.70;;;6.10;99.90;;;;;;5033100;28;20087;-75
2022/03/17 04:26:33;;;;;;;0.10;0.10;;;6.10;99.90;;;;;;5032779;28;20101;-74
2022/03/17 04:28:59;;;;;;;0.40;0.40;;;6.10;99.90;;;;;;5034068;28;20381;-74
2022/03/17 04:31:25;;;;;;;9.50;2.95;;;6.00;99.90;;;;;;5034021;28;20025;-74
2022/03/17 04:33:51;;;;;;;1.10;1.02;;;6.00;99.90;;;;;;5033958;28;20036;-74
2022/03/17 04:36:17;;;;;;;8.57;3.28;;;5.80;99.90;;;;;;5033741;28;20025;-74
2022/03/17 04:38:43;;;;;;;0.68;0.68;;;5.80;99.90;;;;;;5033877;28;20029;-74
2022/03/17 04:41:10;;;;;;;3.20;1.60;;;5.90;99.90;;;;;;5033672;28;20033;-74
2022/03/17 04:43:36;;;;;;;0.52;0.52;;;5.80;99.90;;;;;;5033723;28;20417;-74
2022/03/17 04:46:02;;;;;;;7.63;2.88;;;5.80;99.90;;;;;;5033501;28;20018;-74
2022/03/17 04:48:28;;;;;;;0.20;0.20;;;5.90;99.90;;;;;;5033752;28;20543;-74
2022/03/17 04:50:54;;;;;;;0.93;0.93;;;5.90;99.90;;;;;;5032354;28;20104;-74
2022/03/17 04:53:32;;;;;;;0.82;0.82;;;5.90;99.90;;;;;;5032246;28;20034;-74
2022/03/17 04:56:02;;;;;;;0.57;0.57;;;5.90;99.90;;;;;;5032188;28;20021;-74
2022/03/17 04:58:29;;;;;;;1.33;1.23;;;6.00;99.90;;;;;;5033567;28;20108;-75
2022/03/17 05:00:56;;;;;;;0.47;0.47;;;6.00;99.90;;;;;;5033519;28;20032;-74
2022/03/17 05:03:22;;;;;;;0.40;0.40;;;6.00;99.90;;;;;;5033474;28;20397;-74
2022/03/17 05:05:48;;;;;;;0.20;0.20;;;6.00;99.90;;;;;;5031912;28;20120;-74
2022/03/17 05:08:14;;;;;;;0.20;0.20;;;5.80;99.90;;;;;;5048835;28;20031;-74
2022/03/17 05:10:44;;;;;;;0.30;0.30;;;5.70;99.90;;;;;;5033228;28;20108;-74
2022/03/17 05:13:11;;;;;;;0.70;0.65;;;5.50;99.90;;;;;;5032698;28;20025;-75
2022/03/17 05:15:38;;;;;;;0.20;0.20;;;5.30;99.90;;;;;;5015342;28;20361;-74
2022/03/17 05:18:06;;;;;;;0.50;0.50;;;5.50;99.90;;;;;;5033216;28;20028;-74
2022/03/17 05:20:33;;;;;;;0.20;0.20;;;5.70;99.90;;;;;;5033096;28;20076;-75
2022/03/17 05:22:59;;;;;;;0.20;0.20;;;5.80;99.90;;;;;;5033114;28;20256;-74
2022/03/17 05:25:25;;;;;;;0.20;0.20;;;5.90;99.90;;;;;;5032805;28;20384;-74
2022/03/17 05:27:51;;;;;;;0.20;0.20;;;5.90;99.90;;;;;;5032957;28;20022;-75
2022/03/17 05:30:20;;;;;;;0.20;0.20;;;5.90;99.90;;;;;;5032947;28;20504;-74
2022/03/17 05:32:47;;;;;;;0.20;0.20;;;6.00;99.90;;;;;;5032004;28;20166;-74
2022/03/17 05:35:14;;;;;;;0.57;0.57;;;5.90;99.90;;;;;;5032563;28;20127;-74
2022/03/17 05:37:40;;;;;;;0.20;0.20;;;6.00;99.90;;;;;;5032867;28;20550;-74
2022/03/17 05:40:10;;;;;;;1.85;1.75;;;6.10;99.90;;;;;;5048283;22;20025;-73
2022/03/17 05:42:36;;;;;;;2.88;2.53;;;6.00;99.90;;;;;;5028804;28;20456;-73
2022/03/17 05:45:03;;;;;;;3.60;1.48;;;5.70;99.90;;;;;;5048063;28;20034;-74
2022/03/17 05:47:39;;;;;;;1.25;1.17;;;5.80;99.90;;;;;;5032783;28;20056;-74
2022/03/17 05:50:09;;;;;;;0.35;0.35;;;5.80;99.90;;;;;;5031577;28;20049;-70
2022/03/17 05:52:36;;;;;;;0.55;0.55;;;5.80;99.90;;;;;;5033380;28;20021;-71
2022/03/17 05:55:02;;;;;;;0.20;0.20;;;5.80;99.90;;;;;;5031780;28;20029;-70
2022/03/17 05:57:28;;;;;;;1.45;0.77;;;5.80;99.90;;;;;;5032134;28;20182;-70
2022/03/17 05:59:54;;;;;;;0.55;0.55;;;5.80;99.90;;;;;;5032476;28;20103;-70
2022/03/17 06:02:20;;;;;;;0.20;0.20;;;5.90;99.90;;;;;;5031175;28;20061;-70
2022/03/17 06:04:46;;;;;;;0.13;0.13;;;6.00;99.90;;;;;;5032211;28;20025;-70
2022/03/17 06:07:11;;;;;;;5.88;3.08;;;5.90;99.90;;;;;;5031136;28;20033;-70
2022/03/17 06:09:38;;;;;;;0.20;0.20;;;5.80;99.90;;;;;;5032213;28;20021;-70
2022/03/17 06:12:06;;;;;;;1.40;1.33;;;5.60;99.90;;;;;;5032323;28;20515;-70
2022/03/17 06:14:32;;;;;;;1.65;1.23;;;5.80;99.90;;;;;;5032352;28;20108;-69
2022/03/17 06:16:59;;;;;;;1.65;1.55;;;5.70;99.90;;;;;;5030777;28;20442;-70
2022/03/17 06:19:24;;;;;;;0.30;0.30;;;5.70;99.90;;;;;;5032313;28;20057;-69
2022/03/17 06:21:51;;;;;;;2.67;1.27;;;5.70;99.90;;;;;;5032137;28;20060;-69
2022/03/17 06:24:16;;;;;;;0.88;0.88;;;5.40;99.90;;;;;;5031292;28;20036;-69
2022/03/17 06:26:42;;;;;;;0.28;0.28;;;5.30;99.90;;;;;;5032134;28;20029;-70
2022/03/17 06:29:08;;;;;;;0.52;0.52;;;5.40;99.90;;;;;;5032106;28;20495;-70
2022/03/17 06:31:36;;;;;;;1.85;1.75;;;5.70;99.90;;;;;;5032386;28;20036;-70
2022/03/17 06:34:02;;;;;;;4.28;1.30;;;5.90;99.90;;;;;;5032181;28;20033;-70
2022/03/17 06:36:28;;;;;;;0.90;0.30;;;5.80;99.90;;;;;;5031414;28;20045;-70
2022/03/17 06:38:54;;;;;;;0.20;0.20;;;5.80;99.90;;;;;;5031853;28;20037;-71
2022/03/17 06:41:19;;;;;;;0.75;0.75;;;5.90;99.90;;;;;;5031873;28;20041;-71
2022/03/17 06:43:45;;;;;;;0.10;0.10;;;5.90;99.90;;;;;;5031864;28;20132;-71
2022/03/17 06:46:11;;;;;;;0.32;0.32;;;6.00;99.90;;;;;;5032002;28;20022;-71
2022/03/17 06:48:36;;;;;;;0.30;0.30;;;6.00;99.90;;;;;;5031720;28;20033;-70
2022/03/17 06:51:02;;;;;;;0.10;0.10;;;6.10;99.90;;;;;;5032164;28;20025;-71
2022/03/17 06:53:28;;;;;;;0.15;0.15;;;6.00;99.90;;;;;;5030688;28;20087;-71
2022/03/17 06:55:53;;;;;;;0.38;0.38;;;6.10;99.90;;;;;;5030236;28;20037;-71
2022/03/17 06:58:19;;;;;;;0.13;0.13;;;6.10;99.90;;;;;;5031846;28;20281;-71
2022/03/17 07:00:45;;;;;;;0.47;0.47;;;6.00;99.90;;;;;;5031581;28;20033;-70
2022/03/17 07:03:11;;;;;;;0.43;0.43;;;6.00;99.90;;;;;;5031717;28;20026;-71
2022/03/17 07:05:36;;;;;;;0.10;0.10;;;6.10;99.90;;;;;;5031472;28;20029;-71
2022/03/17 07:08:02;;;;;;;3.20;1.98;;;6.10;99.90;;;;;;5031848;28;20018;-71
2022/03/17 07:10:28;;;;;;;0.65;0.65;;;6.00;99.90;;;;;;5031577;28;20116;-71
2022/03/17 07:12:54;;;;;;;0.10;0.10;;;6.00;99.90;;;;;;5029954;28;20021;-72
2022/03/17 07:15:19;;;;;;;1.65;1.60;;;6.00;99.90;;;;;;5032676;28;20026;-73
2022/03/17 07:17:45;;;;;;;0.90;0.90;;;6.10;99.90;;;;;;5032939;28;20108;-73
2022/03/17 07:20:14;;;;;;;0.28;0.28;;;6.00;99.90;;;;;;5048538;28;20034;-73
2022/03/17 07:22:42;;;;;;;1.33;1.30;;;6.00;99.90;;;;;;5033147;28;20395;-73
2022/03/17 07:25:09;;;;;;;0.13;0.13;;;6.10;99.90;;;;;;5032501;28;20022;-73
2022/03/17 07:27:43;;;;;;;0.65;0.65;;;6.10;99.90;;;;;;5031978;28;20033;-73
2022/03/17 07:30:24;;;;;;;0.57;0.57;;;6.00;99.90;;;;;;5033139;28;20152;-73
2022/03/17 07:32:53;;;;;;;1.00;1.00;;;6.10;99.90;;;;;;5031711;28;20099;-73
2022/03/17 07:35:20;;;;;;;1.45;1.45;;;6.10;99.90;;;;;;5033578;28;20033;-73
2022/03/17 07:37:45;;;;;;;0.40;0.40;;;6.00;99.90;;;;;;5035661;28;20029;-73
2022/03/17 07:40:12;;;;;;;0.20;0.20;;;6.10;99.90;;;;;;5036264;28;20079;-73
2022/03/17 07:42:39;;;;;;;0.60;0.55;;;6.00;99.90;;;;;;5035074;28;20030;-73
2022/03/17 07:45:05;;;;;;;0.20;0.20;;;6.10;99.90;;;;;;5033767;28;20035;-73
2022/03/17 07:47:32;;;;;;;5.68;3.70;;;6.20;99.90;;;;;;5036502;28;20018;-73
2022/03/17 07:50:00;;;;;;;1.92;1.17;;;6.20;99.90;;;;;;5036535;28;20431;-73
2022/03/17 07:52:27;;;;;;;1.55;1.00;;;6.00;99.90;;;;;;5036297;28;20031;-73
2022/03/17 07:54:52;;;;;;;1.00;1.00;;;6.00;99.90;;;;;;5036032;28;20021;-73
2022/03/17 07:57:19;;;;;;;2.10;1.90;;;6.10;99.90;;;;;;5035035;28;20048;-73
2022/03/17 07:59:45;;;;;;;0.20;0.20;;;6.20;99.90;;;;;;5035504;28;20112;-75
2022/03/17 08:02:11;;;;;;;0.32;0.32;;;6.20;99.90;;;;;;5035024;28;20026;-75
2022/03/17 08:04:37;;;;;;;0.95;0.85;;;6.20;99.90;;;;;;5033183;28;20033;-75
2022/03/17 08:07:03;;;;;;;0.20;0.20;;;6.10;99.90;;;;;;5034592;28;20148;-75
2022/03/17 08:09:30;;;;;;;0.63;0.63;;;6.30;99.90;;;;;;5033511;28;20033;-75
2022/03/17 08:11:56;;;;;;;0.10;0.10;;;6.40;99.90;;;;;;5033263;28;20030;-74
2022/03/17 08:14:22;;;;;;;1.98;1.88;;;6.40;99.90;;;;;;5034955;28;20077;-75
2022/03/17 08:16:48;;;;;;;0.57;0.30;;;6.40;99.90;;;;;;5034848;28;20164;-75
2022/03/17 08:19:14;;;;;;;0.20;0.20;;;6.50;99.90;;;;;;5033984;28;20080;-75
2022/03/17 08:21:40;;;;;;;0.20;0.20;;;6.50;99.90;;;;;;5034084;28;20029;-75
2022/03/17 08:24:07;;;;;;;0.10;0.10;;;6.60;99.90;;;;;;5034045;28;20032;-75
2022/03/17 08:26:34;;;;;;;0.52;0.52;;;6.70;99.90;;;;;;5033865;28;20026;-75
2022/03/17 08:29:00;;;;;;;1.40;1.30;;;6.70;99.90;;;;;;5034116;28;20088;-75
2022/03/17 08:31:27;;;;;;;1.63;1.52;;;6.70;99.90;;;;;;5032753;28;20059;-75
2022/03/17 08:33:56;;;;;;;2.55;2.45;;;6.70;99.90;;;;;;5016183;28;20037;-75
2022/03/17 08:36:24;;;;;;;34.65;4.43;;;6.60;99.90;;;;;;5033582;28;20567;-75
2022/03/17 08:38:54;;;;;;;0.55;0.55;;;6.60;99.90;;;;;;5016452;28;20220;-72
2022/03/17 08:41:20;;;;;;;1.42;1.38;;;6.60;99.90;;;;;;5017734;28;20041;-72
2022/03/17 08:43:47;;;;;;;1.27;0.75;;;6.90;99.90;;;;;;5034744;28;20025;-71
2022/03/17 08:51:42;;;;;;;0.10;0.10;;;7.20;99.90;;;;;;5033743;28;20021;-74
2022/03/17 08:54:07;;;;;;;4.22;3.10;;;7.30;99.90;;;;;;5032174;28;20116;-74
2022/03/17 08:56:34;;;;;;;0.40;0.40;;;7.30;99.90;;;;;;5031886;28;20033;-74
2022/03/17 08:59:00;;;;;;;0.20;0.20;;;7.20;99.90;;;;;;5016073;28;20095;-74
2022/03/17 09:01:26;;;;;;;2.05;1.05;;;7.20;99.90;;;;;;5033273;28;20036;-74
2022/03/17 09:03:53;;;;;;;0.98;0.85;;;7.20;99.90;;;;;;5033362;28;20029;-74
2022/03/17 09:06:18;;;;;;;0.20;0.20;;;7.30;99.90;;;;;;5033062;28;20025;-75
2022/03/17 09:08:44;;;;;;;0.55;0.55;;;7.60;99.90;;;;;;5033069;28;20022;-75
2022/03/17 09:11:13;;;;;;;0.10;0.10;;;7.50;99.90;;;;;;5031947;28;20021;-75
2022/03/17 09:13:39;;;;;;;0.47;0.47;;;7.60;99.90;;;;;;5048240;28;20037;-75
2022/03/17 09:16:06;;;;;;;0.77;0.77;;;7.70;99.90;;;;;;5033108;28;20033;-75
2022/03/17 09:18:32;;;;;;;2.90;2.70;;;7.80;99.90;;;;;;5033211;28;20025;-75
2022/03/17 09:21:01;;;;;;;0.20;0.20;;;7.90;99.90;;;;;;5031957;28;20033;-75
2022/03/17 09:23:29;;;;;;;1.30;1.30;;;8.00;99.90;;;;;;5031619;28;20540;-75
2022/03/17 09:25:55;;;;;;;0.75;0.75;;;8.20;99.90;;;;;;5032708;28;20075;-75
2022/03/17 09:28:22;;;;;;;0.20;0.20;;;8.20;99.90;;;;;;5031616;28;20025;-75
2022/03/17 09:30:50;;;;;;;0.17;0.17;;;8.40;99.90;;;;;;5033040;28;20017;-75
2022/03/17 09:33:17;;;;;;;0.20;0.20;;;8.60;99.90;;;;;;5015104;28;20025;-75
2022/03/17 09:35:43;;;;;;;0.63;0.63;;;8.70;99.90;;;;;;5048017;28;20026;-75
2022/03/17 09:38:10;;;;;;;0.52;0.52;;;8.70;99.90;;;;;;5032405;28;20018;-75
2022/03/17 09:40:36;;;;;;;0.63;0.63;;;8.60;99.90;;;;;;5031099;28;20038;-75
2022/03/17 09:43:18;;;;;;;0.85;0.85;;;8.60;99.90;;;;;;5031767;28;20096;-75
2022/03/17 09:45:46;;;;;;;0.20;0.20;;;8.70;99.90;;;;;;5030351;28;20033;-75
2022/03/17 09:48:14;;;;;;;0.57;0.57;;;9.00;99.90;;;;;;5030393;28;20033;-76
2022/03/17 09:50:41;;;;;;;1.05;0.98;;;9.20;99.90;;;;;;5031579;28;20427;-75
2022/03/17 09:53:08;;;;;;;1.17;0.82;;;9.20;99.90;;;;;;5030360;28;20079;-75
2022/03/17 09:55:34;;;;;;;0.40;0.40;;;9.20;99.90;;;;;;5031243;28;20029;-75
2022/03/17 09:58:06;;;;;;;0.20;0.20;;;9.30;99.90;;;;;;5013784;28;20040;-76
2022/03/17 10:00:48;;;;;;;0.25;0.25;;;9.50;99.90;;;;;;5031518;28;20051;-75
2022/03/17 10:03:21;;;;;;;0.40;0.40;;;9.50;99.90;;;;;;5029925;28;20026;-76
2022/03/17 10:05:48;;;;;;;0.20;0.20;;;9.70;99.90;;;;;;5031114;28;20052;-76
2022/03/17 10:08:15;;;;;;;0.65;0.65;;;9.80;99.90;;;;;;5047184;28;20017;-76
2022/03/17 10:10:43;;;;;;;1.60;1.38;;;9.90;99.90;;;;;;5030341;28;20029;-76
2022/03/17 10:13:14;;;;;;;1.20;1.15;;;10.00;99.90;;;;;;5028785;28;20010;-75
2022/03/17 10:16:04;;;;;;;1.13;1.13;;;10.00;99.90;;;;;;5029531;28;20022;-77
2022/03/17 10:18:30;;;;;;;0.57;0.45;;;10.00;99.90;;;;;;5026658;28;20025;-74
2022/03/17 10:21:17;;;;;;;0.50;0.50;;;10.20;99.90;;;;;;5011845;28;20022;-75
2022/03/17 10:23:45;;;;;;;5.97;2.90;;;10.10;99.90;;;;;;5010697;28;20101;-75
2022/03/17 10:26:11;;;;;;;0.20;0.20;;;10.20;99.90;;;;;;5015485;28;20025;-76
2022/03/17 10:28:40;;;;;;;0.95;0.95;;;10.20;99.90;;;;;;5013307;28;20044;-75
2022/03/17 10:31:11;;;;;;;0.20;0.20;;;10.30;99.90;;;;;;5012941;28;20018;-75
2022/03/17 10:33:37;;;;;;;0.20;0.20;;;10.10;99.90;;;;;;5046673;28;20021;-75
2022/03/17 10:36:21;;;;;;;0.20;0.20;;;10.30;99.90;;;;;;5012935;28;20047;-75
2022/03/17 10:38:52;;;;;;;0.40;0.40;;;10.20;99.90;;;;;;5031641;28;20056;-76
2022/03/17 10:41:18;;;;;;;0.38;0.38;;;10.30;99.90;;;;;;4993618;28;1099048;-75
2022/03/17 10:43:44;;;;;;;1.10;0.98;;;10.20;99.90;;;;;;5032489;28;20389;-76
2022/03/17 10:46:20;;;;;;;0.13;0.13;;;10.30;99.90;;;;;;5032058;28;20037;-75
2022/03/17 10:48:59;;;;;;;10.02;4.85;;;10.30;99.90;;;;;;5032348;28;20021;-76
2022/03/17 10:51:36;;;;;;;0.20;0.20;;;10.20;99.90;;;;;;5032087;28;20021;-73
2022/03/17 10:54:08;;;;;;;0.20;0.20;;;10.30;99.90;;;;;;5031834;28;20025;-74
2022/03/17 10:56:36;;;;;;;0.57;0.57;;;10.30;99.90;;;;;;5032030;28;20025;-73
2022/03/17 10:59:02;;;;;;;0.20;0.20;;;10.40;99.90;;;;;;5032006;28;20033;-74
2022/03/17 11:01:39;;;;;;;4.47;2.47;;;10.50;99.90;;;;;;5031677;28;20060;-72
2022/03/17 11:04:06;;;;;;;0.30;0.30;;;10.50;99.90;;;;;;5031106;28;20029;-71
2022/03/17 11:06:33;;;;;;;0.13;0.13;;;10.40;99.90;;;;;;5031293;28;20033;-71
2022/03/17 11:09:01;;;;;;;0.47;0.45;;;10.40;99.90;;;;;;5031298;28;20024;-72
2022/03/17 11:11:30;;;;;;;0.65;0.65;;;10.40;99.90;;;;;;5032080;28;20037;-71
2022/03/17 11:13:59;;;;;;;0.20;0.20;;;10.40;99.90;;;;;;5035139;28;20077;-73
2022/03/17 11:16:36;;;;;;;1.98;0.40;;;10.40;99.90;;;;;;5035234;28;20037;-73
2022/03/17 11:19:04;;;;;;;0.20;0.20;;;10.40;99.90;;;;;;5035291;28;20317;-73
2022/03/17 11:21:30;;;;;;;0.20;0.20;;;10.40;99.90;;;;;;5034948;28;20021;-72
2022/03/17 11:24:05;;;;;;;6.35;1.40;;;10.50;99.90;;;;;;5034968;28;20096;-72
2022/03/17 11:26:37;;;;;;;3.63;3.42;;;10.30;99.90;;;;;;5034865;28;20592;-72
2022/03/17 11:29:17;;;;;;;0.20;0.20;;;10.50;99.90;;;;;;5035010;28;20021;-73
2022/03/17 11:31:56;;;;;;;0.30;0.30;;;10.50;99.90;;;;;;5034672;28;20504;-73
2022/03/17 11:34:48;;;;;;;0.60;0.60;;;10.50;99.90;;;;;;5034674;28;20420;-73
2022/03/17 11:37:20;;;;;;;0.22;0.22;;;10.60;99.90;;;;;;5033364;28;20120;-72
2022/03/17 11:39:54;;;;;;;0.20;0.20;;;10.50;99.90;;;;;;5033252;28;20032;-74
2022/03/17 11:42:32;;;;;;;0.28;0.28;;;10.60;99.90;;;;;;5115313;22;20045;-74
2022/03/17 11:45:13;;;;;;;20.17;2.85;;;10.60;99.90;;;;;;5065025;28;20051;-73
2022/03/17 11:47:53;;;;;;;0.80;0.80;;;10.70;99.90;;;;;;5056496;28;20027;-73
2022/03/17 11:50:34;;;;;;;1.38;1.30;;;10.60;99.90;;;;;;5074531;28;20379;-74
2022/03/17 11:53:02;;;;;;;1.75;1.65;;;10.60;99.90;;;;;;5073190;28;20043;-73
2022/03/17 11:55:45;;;;;;;0.20;0.20;;;10.40;99.90;;;;;;5072658;28;20024;-73
2022/03/17 11:58:41;;;;;;;5.05;2.92;;;10.50;99.90;;;;;;5074186;28;20055;-73
2022/03/17 12:01:14;;;;;;;0.17;0.17;;;10.40;99.90;;;;;;5073010;28;20033;-74
2022/03/17 12:03:47;;;;;;;0.20;0.20;;;10.60;99.90;;;;;;5073964;28;20112;-74
2022/03/17 12:06:19;;;;;;;0.82;0.82;;;10.80;99.90;;;;;;5074725;28;20422;-73
2022/03/17 12:08:59;;;;;;;1.05;1.05;;;10.90;99.90;;;;;;5074587;28;20021;-73
2022/03/17 12:11:30;;;;;;;0.20;0.20;;;10.90;99.90;;;;;;5074291;28;20426;-72
2022/03/17 12:14:14;;;;;;;1.17;0.75;;;10.80;99.90;;;;;;5072706;28;20024;-72
2022/03/17 12:16:42;;;;;;;0.20;0.20;;;10.80;99.90;;;;;;5073534;28;20116;-75
2022/03/17 12:19:07;;;;;;;0.55;0.55;;;10.80;99.90;;;;;;5073843;28;20024;-73
2022/03/17 12:21:58;;;;;;;4.80;4.35;;;10.80;99.90;;;;;;5073175;28;20434;-72
2022/03/17 12:24:40;;;;;;;1.20;1.13;;;11.00;99.90;;;;;;5073992;28;20036;-72
2022/03/17 12:27:13;;;;;;;0.47;0.47;;;10.70;99.90;;;;;;5089339;28;20033;-74
2022/03/17 12:29:40;;;;;;;9.63;3.83;;;10.70;99.90;;;;;;5073622;28;20578;-74
2022/03/17 12:32:12;;;;;;;0.20;0.20;;;10.70;99.90;;;;;;5073648;28;20021;-74
2022/03/17 12:34:38;;;;;;;0.20;0.20;;;10.80;99.90;;;;;;5073945;28;20025;-73
2022/03/17 12:37:05;;;;;;;5.70;2.05;;;10.90;99.90;;;;;;5072216;28;20393;-74
2022/03/17 12:39:33;;;;;;;0.20;0.20;;;11.00;99.90;;;;;;5058136;28;20029;-73
2022/03/17 12:42:00;;;;;;;0.20;0.20;;;11.00;99.90;;;;;;5052092;28;20083;-73
2022/03/17 12:44:27;;;;;;;5.03;2.80;;;11.00;99.90;;;;;;5053380;28;20029;-73
2022/03/17 12:46:55;;;;;;;0.60;0.43;;;10.90;99.90;;;;;;5052200;28;20029;-73
2022/03/17 12:49:21;;;;;;;0.70;0.70;;;11.00;99.90;;;;;;5053222;28;20037;-72
2022/03/17 12:51:51;;;;;;;2.92;2.80;;;11.00;99.90;;;;;;5066195;28;20108;-73
2022/03/17 12:54:17;;;;;;;0.85;0.85;;;10.90;99.90;;;;;;5073007;28;20488;-74
2022/03/17 12:56:51;;;;;;;0.20;0.20;;;10.90;99.90;;;;;;5073211;28;20020;-73
2022/03/17 12:59:18;;;;;;;5.03;2.50;;;11.00;99.90;;;;;;5073045;28;20035;-74
2022/03/17 13:01:47;;;;;;;0.20;0.20;;;10.90;99.90;;;;;;5069863;28;20029;-73
2022/03/17 13:04:14;;;;;;;0.73;0.73;;;10.80;99.90;;;;;;5071237;28;20028;-74
2022/03/17 13:06:55;;;;;;;0.20;0.20;;;10.80;99.90;;;;;;5071007;28;20045;-73
2022/03/17 13:09:30;;;;;;;0.20;0.20;;;10.80;99.90;;;;;;5070414;28;20060;-73
2022/03/17 13:15:15;;;;;;;0.20;0.20;;;10.80;99.90;;;;;;5054815;28;20043;-73
2022/03/17 13:17:49;;;;;;;2.65;2.42;;;10.90;99.90;;;;;;5072798;28;20035;-74